Terminal Aerodrome Forecast
Issued by NWS Birmingham, AL

Home | Current Version | Previous Version | Text Only | Print | Product List | Glossary On
Versions: 1 2 3 4 5 6 7 8 9 10 11 12 13 14
000
FTUS44 KBMX 012300
TAFBHM
TAF
KBHM 012336Z 0200/0224 14005KT P6SM VCSH OVC015
     FM020300 14003KT 5SM -RA BR OVC007
     FM020900 VRB03KT 3SM -RA BR OVC005
     FM021500 03005KT 4SM -RA BR OVC007=

USA.gov is the U.S. government's official web portal to all federal, state and local government web resources and services.